Alexanders Store, Texas
Current Conditions -  °F | °C
As of 10:35 AM on Thursday 30 Oct 2014 (Local Time) from KOCH Reporting Station
Clear Clear  
Wind Chill: 64°   Ceiling: Unl
Heat Index: 64°   Visibility: 10mi
Dew Point: 46°   Wind: 7mph
Humidity: 52%   Direction: 140°SE
Pressure: 30.19"   Gusts: NA
Location:  31.7022°N, 93.9592°W
Report Text: KOCH 301535Z AUTO 14006KT 10SM CLR 18/08 A3019 RMK AO1
Loading
Personal Weather Stations






























Interactive Weather Map
Tropical Storm Tracking
New forecast layout! Learn more

10-Day Weather Forecast

Advertisements
Track Severe Weather on mobile